Latest Weather Observations for Port Macquarie Airport

IDN60801

Issued at 4:35 pm EDT Thursday 18 December 2014 (issued every 30 minutes, with the page automatically refreshed every 10 minutes)

About weather observations | Map of weather stations | Latest weather observations for NSW | Other Formats
Station Details ID: 060139 Name: PORT MACQUARIE AIRPORT AWS Lat: -31.43 Lon: 152.87 Height: 4.2 m
Data from the previous 72 hours. | See also: Recent months at Port Macquarie Airport
Date/Time
EDT
Temp
°C
App
Temp
°C
Dew
Point
Rel
Hum
%
Delta-T
°C
Wind Press
QNH
hPa
Press
MSL
hPa
Rain
since 9 am
mm
Dir
 
Spd
km/h
Gust
km/h
Spd
kts
Gust
kts
18/04:30pm 23.8 25.7 22.8 94 0.7 N 17 28 9 15 1005.4 1005.4 4.6
18/04:15pm 23.3 25.1 21.9 92 0.9 NE 15 22 8 12 1004.3 1004.3 4.2
18/04:00pm 23.7 26.2 22.5 93 0.8 NNE 13 22 7 12 1004.9 1004.9 2.0
18/03:40pm 24.0 25.3 22.3 90 1.1 NNE 19 33 10 18 1004.7 1004.7 1.4
18/03:30pm 24.3 27.8 22.2 88 1.4 ENE 7 15 4 8 1005.5 1005.5 0.0
18/03:28pm 24.3 27.4 22.2 88 1.4 ENE 9 15 5 8 1005.3 - 0.0
18/03:00pm 24.5 26.0 22.0 86 1.7 NE 17 26 9 14 1004.5 1004.5 0.0
18/02:35pm 24.7 25.5 21.8 84 1.9 NE 20 26 11 14 1005.0 1005.0 0.0
18/02:34pm 24.8 25.7 21.9 84 1.9 NE 20 26 11 14 1005.0 - 0.0
18/02:30pm 24.9 25.7 21.8 83 2.1 NE 20 26 11 14 1005.0 1005.0 0.0
18/02:00pm 25.2 26.2 21.7 81 2.3 NE 19 26 10 14 1005.9 1005.9 0.0
18/01:30pm 25.0 24.8 21.3 80 2.4 NE 24 35 13 19 1006.6 1006.6 0.0
18/01:00pm 25.7 26.5 21.4 77 2.9 NE 19 24 10 13 1007.0 1007.0 0.0
18/12:30pm 25.1 25.0 21.4 80 2.4 NE 24 32 13 17 1007.2 1007.2 0.0
18/12:00pm 24.8 24.4 20.9 79 2.6 NE 24 33 13 18 1007.6 1007.6 0.0
18/11:30am 25.1 25.6 20.8 77 2.8 NE 19 26 10 14 1008.1 1008.1 0.0
18/11:00am 25.2 25.4 20.5 75 3.1 NE 20 26 11 14 1008.0 1008.0 0.0
18/10:30am 25.3 25.8 20.8 76 3.0 NE 19 26 10 14 1008.1 1008.1 0.0
18/10:00am 25.3 26.4 20.5 75 3.1 NE 15 20 8 11 1008.0 1008.0 0.0
18/09:30am 24.8 25.0 20.1 75 3.0 NNE 19 22 10 12 1008.4 1008.4 0.0
18/09:00am 24.3 26.3 20.0 77 2.8 NNE 9 13 5 7 1008.8 1008.8 0.4
18/08:30am 23.7 25.6 19.8 79 2.5 NNW 9 15 5 8 1009.4 1009.4 0.4
18/08:00am 22.8 24.7 19.8 83 1.9 NW 9 13 5 7 1009.5 1009.5 0.4
18/07:30am 21.5 23.3 18.7 84 1.8 NNW 7 11 4 6 1009.4 1009.4 0.4
18/07:00am 20.4 23.6 18.9 91 0.9 CALM 0 0 0 0 1009.2 1009.2 0.4
18/06:30am 19.9 22.6 18.6 92 0.8 N 2 7 1 4 1009.3 1009.3 0.4
18/06:00am 19.2 20.4 18.2 94 0.6 NNW 9 11 5 6 1009.5 1009.5 0.4
18/05:30am 19.4 22.2 17.9 91 0.9 CALM 0 0 0 0 1009.3 1009.3 0.4
18/05:00am 19.8 22.7 18.3 91 0.9 CALM 0 0 0 0 1009.3 1009.3 0.4
18/04:30am 19.6 22.5 18.1 91 0.9 CALM 0 0 0 0 1009.2 1009.2 0.4
18/04:00am 20.1 23.0 18.2 89 1.2 CALM 0 6 0 3 1009.2 1009.2 0.4
18/03:30am 20.0 21.7 18.0 88 1.2 SSW 6 7 3 4 1009.4 1009.4 0.4
18/03:00am 20.0 21.7 18.0 88 1.2 SW 6 9 3 5 1009.2 1009.2 0.4
18/02:30am 19.9 21.4 18.0 89 1.2 WSW 7 9 4 5 1009.4 1009.4 0.4
18/02:00am 19.7 22.0 17.8 89 1.2 W 2 6 1 3 1009.5 1009.5 0.4
18/01:30am 19.6 20.7 18.1 91 0.9 WNW 9 11 5 6 1009.6 1009.6 0.4
18/01:00am 19.4 21.3 17.7 90 1.0 WNW 4 7 2 4 1009.4 1009.4 0.4
18/12:30am 19.8 21.5 18.1 90 1.1 WNW 6 6 3 3 1009.8 1009.8 0.4
18/12:00am 19.9 21.5 17.9 88 1.2 SW 6 7 3 4 1010.1 1010.1 0.4
 
Date/Time
EDT
Temp
°C
App
Temp
°C
Dew
Point
Rel
Hum
%
Delta-T
°C
Wind Press
QNH
hPa
Press
MSL
hPa
Rain
since 9 am
mm
Dir
 
Spd
km/h
Gust
km/h
Spd
kts
Gust
kts
17/11:30pm 20.1 23.0 18.2 89 1.2 CALM 0 0 0 0 1010.6 1010.6 0.4
17/11:00pm 20.0 21.4 17.8 87 1.4 SW 7 13 4 7 1010.4 1010.4 0.4
17/10:30pm 20.2 21.7 17.6 85 1.6 WSW 6 9 3 5 1010.3 1010.3 0.4
17/10:00pm 19.9 20.9 17.7 87 1.4 SW 9 11 5 6 1010.4 1010.4 0.4
17/09:30pm 19.7 20.8 18.0 90 1.0 WNW 9 17 5 9 1010.2 1010.2 0.4
17/09:00pm 20.2 21.9 18.1 88 1.3 W 6 9 3 5 1009.9 1009.9 0.4
17/08:30pm 19.8 19.7 17.9 89 1.2 NW 15 26 8 14 1010.7 1010.7 0.4
17/08:00pm 20.5 21.3 18.1 86 1.5 WNW 11 22 6 12 1009.3 1009.3 0.4
17/07:51pm 20.6 20.4 17.6 83 1.8 NNW 15 26 8 14 1009.2 1009.2 0.4
17/07:30pm 20.6 20.2 17.2 81 2.1 SSE 15 24 8 13 1007.1 1007.1 0.0
17/07:00pm 21.6 21.3 17.4 77 2.6 SSE 15 24 8 13 1008.4 1008.4 0.0
17/06:30pm 21.8 20.8 16.7 73 3.1 SSW 17 24 9 13 1008.3 1008.3 0.0
17/06:00pm 22.2 20.9 16.9 72 3.2 SSW 19 26 10 14 1008.3 1008.3 0.0
17/05:30pm 22.3 20.4 16.8 71 3.4 SSW 22 39 12 21 1007.0 1007.0 0.0
17/05:00pm 22.5 20.0 17.0 71 3.4 S 26 35 14 19 1005.9 1005.9 0.0
17/04:30pm 22.8 19.4 16.8 69 3.7 SSW 30 41 16 22 1006.4 1006.4 0.0
17/04:20pm 23.3 19.5 16.8 67 4.0 S 32 50 17 27 1005.9 1005.9 0.0
17/04:00pm 24.1 19.8 17.8 68 3.9 S 37 50 20 27 1005.6 1005.6 0.0
17/03:30pm 25.1 21.6 18.8 68 4.0 S 35 52 19 28 1005.4 1005.4 0.0
17/03:05pm 24.8 21.7 18.3 67 4.1 S 32 50 17 27 1005.5 1005.5 0.0
17/03:00pm 25.3 22.6 19.2 69 3.9 S 32 46 17 25 1005.4 1005.4 0.0
17/02:31pm 24.4 20.8 17.6 66 4.2 S 33 56 18 30 1005.2 1005.2 0.0
17/02:30pm 24.8 21.6 18.5 68 4.0 S 33 46 18 25 1005.1 1005.1 0.0
17/02:00pm 24.9 21.4 18.8 69 3.9 S 35 54 19 29 1004.8 1004.8 0.0
17/01:30pm 24.3 19.5 18.5 70 3.7 S 41 61 22 33 1004.5 1004.5 0.0
17/01:00pm 25.0 20.6 18.4 66 4.2 S 39 61 21 33 1004.1 1004.1 0.0
17/12:33pm 25.4 21.1 18.6 66 4.3 S 39 59 21 32 1004.0 1004.0 0.0
17/12:30pm 25.6 22.0 18.5 65 4.5 S 35 50 19 27 1004.0 1004.0 0.0
17/12:06pm 25.5 21.1 18.4 65 4.5 S 39 59 21 32 1003.6 1003.6 0.0
17/12:00pm 25.8 21.9 18.7 65 4.5 S 37 52 20 28 1003.6 1003.6 0.0
17/11:30am 26.1 22.4 19.2 65 4.4 SSE 37 48 20 26 1003.5 1003.5 0.0
17/11:00am 26.3 23.2 18.9 63 4.8 SSE 33 43 18 23 1003.5 1003.5 0.0
17/10:52am 26.6 23.4 18.7 62 5.0 SSE 33 43 18 23 1003.4 1003.4 0.0
17/10:30am 31.6 29.5 17.1 41 9.2 SSW 24 44 13 24 1002.9 1002.9 0.0
17/10:00am 32.2 30.9 16.9 40 9.7 WNW 19 30 10 16 1002.2 1002.2 0.0
17/09:30am 31.0 31.0 18.0 45 8.3 W 15 20 8 11 1002.3 1002.3 0.0
17/09:00am 28.9 29.5 18.7 54 6.6 NW 13 19 7 10 1002.2 1002.2 1.6
17/08:30am 27.0 28.0 19.4 63 4.9 NW 13 17 7 9 1002.3 1002.3 1.6
17/08:00am 25.6 26.3 18.8 66 4.4 NW 13 17 7 9 1002.1 1002.1 1.6
17/07:30am 23.7 24.2 18.4 72 3.3 NW 13 17 7 9 1001.9 1001.9 1.6
17/07:00am 21.6 22.3 18.0 80 2.2 NW 11 15 6 8 1001.7 1001.7 1.6
17/06:30am 20.2 21.1 17.6 85 1.6 NNW 9 15 5 8 1001.5 1001.5 1.6
17/06:00am 19.3 20.3 17.8 91 0.9 N 9 13 5 7 1001.1 1001.1 1.6
17/05:30am 19.0 20.0 17.8 93 0.7 NNW 9 13 5 7 1000.7 1000.7 1.6
17/05:00am 19.0 20.5 18.0 94 0.6 NNW 7 11 4 6 1000.4 1000.4 1.6
17/04:30am 19.5 20.8 18.5 94 0.6 N 9 13 5 7 1000.1 1000.1 1.6
17/04:00am 19.5 21.3 18.7 95 0.5 N 7 9 4 5 1000.2 1000.2 1.6
17/03:30am 19.7 21.5 18.7 94 0.6 NW 7 9 4 5 1000.3 1000.3 1.6
17/03:00am 19.8 21.4 18.3 91 0.9 NNW 7 9 4 5 1000.3 1000.3 1.6
17/02:30am 21.2 23.1 19.7 91 1.0 N 9 13 5 7 1000.8 1000.8 1.6
17/02:00am 21.6 22.4 19.9 90 1.1 N 15 20 8 11 1001.0 1001.0 1.6
17/01:30am 21.7 22.6 20.0 90 1.1 N 15 22 8 12 1001.5 1001.5 1.6
17/01:00am 22.0 22.1 19.9 88 1.4 N 19 26 10 14 1001.9 1001.9 1.6
17/12:30am 22.0 22.8 19.9 88 1.3 N 15 20 8 11 1002.1 1002.1 1.6
17/12:00am 22.1 23.3 20.0 88 1.4 NNW 13 19 7 10 1002.5 1002.5 1.6
 
Date/Time
EDT
Temp
°C
App
Temp
°C
Dew
Point
Rel
Hum
%
Delta-T
°C
Wind Press
QNH
hPa
Press
MSL
hPa
Rain
since 9 am
mm
Dir
 
Spd
km/h
Gust
km/h
Spd
kts
Gust
kts
16/11:30pm 22.0 22.9 20.1 89 1.2 NNW 15 19 8 10 1003.1 1003.1 1.6
16/11:00pm 22.1 22.3 20.2 89 1.2 N 19 26 10 14 1003.4 1003.4 1.6
16/10:30pm 22.5 22.2 20.4 88 1.4 NNE 22 33 12 18 1003.0 1003.0 1.6
16/10:00pm 22.6 22.9 20.3 87 1.5 NNE 19 26 10 14 1004.0 1004.0 1.6
16/09:30pm 22.6 22.9 20.3 87 1.5 NNE 19 26 10 14 1004.5 1004.5 1.6
16/09:00pm 22.5 23.4 20.0 86 1.6 NNE 15 22 8 12 1004.6 1004.6 1.6
16/08:30pm 22.4 23.3 20.1 87 1.5 N 15 20 8 11 1004.5 1004.5 1.6
16/08:00pm 22.5 23.2 20.4 88 1.4 NNE 17 20 9 11 1004.6 1004.6 1.6
16/07:59pm 22.3 22.8 20.0 87 1.5 NNE 17 20 9 11 1004.6 1004.6 1.6
16/07:45pm 22.8 24.2 20.3 86 1.6 N 13 20 7 11 1004.8 1004.8 1.4
16/07:30pm 23.6 23.0 19.7 79 2.5 NW 22 35 12 19 1006.7 1006.7 0.0
16/07:27pm 23.5 22.8 19.4 78 2.6 N 22 32 12 17 1005.4 1005.4 0.0
16/07:00pm 23.6 21.7 19.3 77 2.8 NNE 28 46 15 25 1003.2 1003.2 0.0
16/06:52pm 23.6 21.7 19.3 77 2.7 NNE 28 46 15 25 1002.9 1002.9 0.0
16/06:30pm 23.8 21.8 19.1 75 3.0 NNE 28 37 15 20 1002.9 1002.9 0.0
16/06:00pm 24.1 22.9 19.2 74 3.1 NNE 24 37 13 20 1003.0 1003.0 0.0
16/05:30pm 24.4 22.7 19.0 72 3.4 NNE 26 35 14 19 1002.9 1002.9 0.0
16/05:00pm 24.2 22.3 18.6 71 3.6 NNE 26 33 14 18 1003.1 1003.1 0.0
16/04:30pm 24.5 23.1 18.7 70 3.7 NNE 24 35 13 19 1003.4 1003.4 0.0
16/04:00pm 24.8 22.7 18.0 66 4.3 NE 26 35 14 19 1003.3 1003.3 0.0
16/03:30pm 25.3 23.3 18.2 64 4.5 NE 26 33 14 18 1004.1 1004.1 0.0
16/03:00pm 26.8 25.1 18.1 59 5.5 NE 24 32 13 17 1004.7 1004.7 0.0
16/02:30pm 27.0 25.1 18.6 60 5.4 NE 26 37 14 20 1004.9 1004.9 0.0
16/02:00pm 26.3 23.7 17.9 60 5.3 NE 28 41 15 22 1005.2 1005.2 0.0
16/01:30pm 25.9 22.9 17.8 61 5.1 NE 30 41 16 22 1005.8 1005.8 0.0
16/01:00pm 25.4 21.9 16.5 58 5.5 NE 30 43 16 23 1006.1 1006.1 0.0
16/12:30pm 25.5 22.2 16.1 56 5.7 NE 28 39 15 21 1006.8 1006.8 0.0
16/12:00pm 26.2 24.4 17.0 57 5.7 NE 22 30 12 16 1007.4 1007.4 0.0
16/11:30am 26.3 24.2 16.3 54 6.2 NE 22 32 12 17 1007.4 1007.4 0.0
16/11:00am 25.6 23.8 17.0 59 5.3 NE 22 28 12 15 1007.3 1007.3 0.0
16/10:30am 25.4 23.3 16.3 57 5.6 NNE 22 30 12 16 1007.7 1007.7 0.0
16/10:00am 25.1 22.9 16.0 57 5.6 NNE 22 30 12 16 1008.3 1008.3 0.0
16/09:30am 24.0 21.7 15.8 60 5.0 N 22 33 12 18 1008.4 1008.4 0.0
16/09:00am 23.2 20.8 15.5 62 4.6 N 22 32 12 17 1008.5 1008.5 0.0
16/08:30am 22.2 21.3 15.8 67 3.8 NNE 15 20 8 11 1008.7 1008.7 0.0
16/08:00am 19.7 19.5 15.8 78 2.3 N 11 13 6 7 1008.9 1008.9 0.0
16/07:30am 17.1 18.7 14.9 87 1.3 CALM 0 0 0 0 1009.0 1009.0 0.0
16/07:00am 15.3 16.8 14.7 96 0.3 CALM 0 0 0 0 1009.3 1009.3 0.0
16/06:30am 13.7 14.6 12.9 95 0.4 CALM 0 0 0 0 1009.0 1009.0 0.0
16/06:00am 12.8 13.4 11.9 94 0.5 CALM 0 0 0 0 1008.7 1008.7 0.0
16/05:30am 13.2 14.0 12.4 95 0.4 CALM 0 0 0 0 1008.7 1008.7 0.0
16/05:00am 12.9 13.1 12.0 94 0.5 NW 2 7 1 4 1008.7 1008.7 0.0
16/04:30am 13.0 13.3 12.2 95 0.4 WNW 2 7 1 4 1008.9 1008.9 0.0
16/04:17am 13.1 13.8 12.2 94 0.5 CALM 0 7 0 4 1008.7 1008.7 0.0
16/04:00am 12.9 13.5 11.8 93 0.6 CALM 0 0 0 0 1008.6 1008.6 0.0
16/03:58am 12.9 13.5 11.8 93 0.6 CALM 0 0 0 0 1008.6 1008.6 0.0
16/03:30am 13.4 14.1 12.1 92 0.7 CALM 0 0 0 0 1009.0 1009.0 0.0
16/03:00am 13.9 14.8 12.8 93 0.6 CALM 0 0 0 0 1009.3 1009.3 0.0
16/02:30am 13.6 14.3 12.2 91 0.8 CALM 0 0 0 0 1009.8 1009.8 0.0
16/02:00am 14.5 15.4 12.9 90 0.9 CALM 0 0 0 0 1010.1 1010.1 0.0
16/01:30am 14.4 15.2 12.6 89 1.0 CALM 0 0 0 0 1010.4 1010.4 0.0
16/01:00am 15.5 16.6 13.5 88 1.1 CALM 0 0 0 0 1010.6 1010.6 0.0
16/12:30am 16.1 17.3 13.9 87 1.2 CALM 0 0 0 0 1011.1 1011.1 0.0
16/12:00am 17.1 18.6 14.6 85 1.4 CALM 0 0 0 0 1011.4 1011.4 0.0
 
Date/Time
EDT
Temp
°C
App
Temp
°C
Dew
Point
Rel
Hum
%
Delta-T
°C
Wind Press
QNH
hPa
Press
MSL
hPa
Rain
since 9 am
mm
Dir
 
Spd
km/h
Gust
km/h
Spd
kts
Gust
kts
15/11:30pm 18.0 19.7 15.1 83 1.7 CALM 0 0 0 0 1011.7 1011.7 0.0
15/11:00pm 18.1 18.7 15.2 83 1.7 NNW 6 9 3 5 1012.0 1012.0 0.0
15/10:30pm 18.1 18.8 15.5 85 1.5 NNW 6 7 3 4 1012.0 1012.0 0.0
15/10:00pm 17.9 19.0 14.6 81 1.9 NNW 2 6 1 3 1011.9 1011.9 0.0
15/09:30pm 18.1 18.3 14.8 81 1.9 N 7 7 4 4 1011.7 1011.7 0.0
15/09:00pm 19.2 19.3 14.5 74 2.7 N 7 9 4 5 1011.5 1011.5 0.0
15/08:30pm 20.9 20.9 15.2 70 3.4 NNE 9 13 5 7 1011.3 1011.3 0.0
15/08:00pm 21.7 21.5 14.6 64 4.2 NNE 9 13 5 7 1011.3 1011.3 0.0
15/07:30pm 22.3 21.2 14.4 61 4.6 NE 13 17 7 9 1011.2 1011.2 0.0
15/07:00pm 23.0 21.9 14.3 58 5.1 ENE 13 15 7 8 1010.9 1010.9 0.0
15/06:30pm 23.5 22.6 14.8 58 5.2 NE 13 20 7 11 1010.8 1010.8 0.0
15/06:00pm 23.7 22.3 14.4 56 5.5 ENE 15 20 8 11 1010.4 1010.4 0.0
15/05:30pm 23.9 21.6 14.0 54 5.8 ENE 19 24 10 13 1010.3 1010.3 0.0
15/05:00pm 24.7 22.8 14.2 52 6.2 ENE 17 24 9 13 1010.3 1010.3 0.0

Other Formats:

Comma delimited format used in spreadsheet applications
http://www.bom.gov.au/fwo/IDN60801/IDN60801.94786.axf

JavaScript Object Notation format (JSON) in row-major order
http://www.bom.gov.au/fwo/IDN60801/IDN60801.94786.json